sensor_id;sensor_type;location;lat;lon;timestamp;P1;durP1;ratioP1;P2;durP2;ratioP2
21432;SDS011;18592;49.708;10.900;2023-09-30T00:01:40;14.18;;;6.95;;
21432;SDS011;18592;49.708;10.900;2023-09-30T00:03:41;15.38;;;6.82;;
21432;SDS011;18592;49.708;10.900;2023-09-30T00:05:43;15.15;;;6.85;;
21432;SDS011;18592;49.708;10.900;2023-09-30T00:07:44;14.93;;;7.53;;
21432;SDS011;18592;49.708;10.900;2023-09-30T00:09:46;12.20;;;6.43;;
21432;SDS011;18592;49.708;10.900;2023-09-30T00:11:48;13.70;;;7.18;;
21432;SDS011;18592;49.708;10.900;2023-09-30T00:13:50;13.60;;;6.90;;
21432;SDS011;18592;49.708;10.900;2023-09-30T00:15:52;12.85;;;6.10;;
21432;SDS011;18592;49.708;10.900;2023-09-30T00:17:53;14.70;;;7.32;;
21432;SDS011;18592;49.708;10.900;2023-09-30T00:19:55;12.85;;;6.28;;
21432;SDS011;18592;49.708;10.900;2023-09-30T00:21:57;13.07;;;6.63;;
21432;SDS011;18592;49.708;10.900;2023-09-30T00:23:58;14.63;;;7.13;;
21432;SDS011;18592;49.708;10.900;2023-09-30T00:26:00;13.02;;;6.57;;
21432;SDS011;18592;49.708;10.900;2023-09-30T00:28:02;15.10;;;6.68;;
21432;SDS011;18592;49.708;10.900;2023-09-30T00:30:04;13.88;;;6.47;;
21432;SDS011;18592;49.708;10.900;2023-09-30T00:32:08;12.45;;;6.13;;
21432;SDS011;18592;49.708;10.900;2023-09-30T00:34:11;13.13;;;6.93;;
21432;SDS011;18592;49.708;10.900;2023-09-30T00:36:12;11.77;;;5.93;;
21432;SDS011;18592;49.708;10.900;2023-09-30T00:38:14;13.50;;;6.72;;
21432;SDS011;18592;49.708;10.900;2023-09-30T00:40:16;13.25;;;6.38;;
21432;SDS011;18592;49.708;10.900;2023-09-30T00:42:17;11.40;;;5.82;;
21432;SDS011;18592;49.708;10.900;2023-09-30T00:44:19;14.50;;;6.32;;
21432;SDS011;18592;49.708;10.900;2023-09-30T00:46:34;12.70;;;5.90;;
21432;SDS011;18592;49.708;10.900;2023-09-30T00:48:39;10.57;;;5.22;;
21432;SDS011;18592;49.708;10.900;2023-09-30T00:50:41;11.10;;;5.80;;
21432;SDS011;18592;49.708;10.900;2023-09-30T00:52:42;9.68;;;5.22;;
21432;SDS011;18592;49.708;10.900;2023-09-30T00:54:46;11.25;;;5.65;;
21432;SDS011;18592;49.708;10.900;2023-09-30T00:56:50;11.10;;;5.13;;
21432;SDS011;18592;49.708;10.900;2023-09-30T00:58:53;10.30;;;5.00;;
21432;SDS011;18592;49.708;10.900;2023-09-30T01:00:55;8.70;;;4.43;;
21432;SDS011;18592;49.708;10.900;2023-09-30T01:02:57;8.77;;;4.57;;
21432;SDS011;18592;49.708;10.900;2023-09-30T01:05:05;9.95;;;4.68;;
21432;SDS011;18592;49.708;10.900;2023-09-30T01:07:12;8.93;;;4.57;;
21432;SDS011;18592;49.708;10.900;2023-09-30T01:09:13;9.68;;;4.38;;
21432;SDS011;18592;49.708;10.900;2023-09-30T01:11:15;9.57;;;4.50;;
21432;SDS011;18592;49.708;10.900;2023-09-30T01:13:33;7.97;;;4.32;;
21432;SDS011;18592;49.708;10.900;2023-09-30T01:15:36;8.63;;;4.20;;
21432;SDS011;18592;49.708;10.900;2023-09-30T01:17:38;10.75;;;4.88;;
21432;SDS011;18592;49.708;10.900;2023-09-30T01:19:40;9.77;;;4.50;;
21432;SDS011;18592;49.708;10.900;2023-09-30T01:21:44;10.35;;;4.55;;
21432;SDS011;18592;49.708;10.900;2023-09-30T01:23:58;9.52;;;4.85;;
21432;SDS011;18592;49.708;10.900;2023-09-30T01:26:03;9.18;;;4.15;;
21432;SDS011;18592;49.708;10.900;2023-09-30T01:28:09;9.13;;;4.00;;
21432;SDS011;18592;49.708;10.900;2023-09-30T01:30:11;9.23;;;4.13;;
21432;SDS011;18592;49.708;10.900;2023-09-30T01:32:15;9.23;;;4.55;;
21432;SDS011;18592;49.708;10.900;2023-09-30T01:34:18;8.82;;;4.20;;
21432;SDS011;18592;49.708;10.900;2023-09-30T01:36:26;7.05;;;3.70;;
21432;SDS011;18592;49.708;10.900;2023-09-30T01:38:27;8.00;;;4.22;;
21432;SDS011;18592;49.708;10.900;2023-09-30T01:40:29;10.25;;;4.90;;
21432;SDS011;18592;49.708;10.900;2023-09-30T01:42:30;8.88;;;4.20;;
21432;SDS011;18592;49.708;10.900;2023-09-30T01:44:32;6.55;;;3.63;;
21432;SDS011;18592;49.708;10.900;2023-09-30T01:46:34;7.47;;;3.90;;
21432;SDS011;18592;49.708;10.900;2023-09-30T01:48:36;9.13;;;3.92;;
21432;SDS011;18592;49.708;10.900;2023-09-30T01:50:38;9.35;;;4.07;;
21432;SDS011;18592;49.708;10.900;2023-09-30T01:52:40;8.75;;;4.03;;
21432;SDS011;18592;49.708;10.900;2023-09-30T01:54:42;10.48;;;3.95;;
21432;SDS011;18592;49.708;10.900;2023-09-30T01:56:43;7.45;;;3.22;;
21432;SDS011;18592;49.708;10.900;2023-09-30T01:58:45;6.53;;;3.35;;
21432;SDS011;18592;49.708;10.900;2023-09-30T02:00:48;7.00;;;3.60;;
21432;SDS011;18592;49.708;10.900;2023-09-30T02:02:49;8.50;;;3.92;;
21432;SDS011;18592;49.708;10.900;2023-09-30T02:04:58;6.05;;;3.25;;
21432;SDS011;18592;49.708;10.900;2023-09-30T02:07:00;7.55;;;3.53;;
21432;SDS011;18592;49.708;10.900;2023-09-30T02:09:16;5.68;;;2.67;;
21432;SDS011;18592;49.708;10.900;2023-09-30T02:11:29;5.82;;;2.95;;
21432;SDS011;18592;49.708;10.900;2023-09-30T02:13:42;5.70;;;2.80;;
21432;SDS011;18592;49.708;10.900;2023-09-30T02:15:49;6.63;;;3.20;;
21432;SDS011;18592;49.708;10.900;2023-09-30T02:17:55;6.85;;;3.25;;
21432;SDS011;18592;49.708;10.900;2023-09-30T02:19:59;5.00;;;2.95;;
21432;SDS011;18592;49.708;10.900;2023-09-30T02:22:02;6.25;;;3.22;;
21432;SDS011;18592;49.708;10.900;2023-09-30T02:24:04;7.20;;;3.35;;
21432;SDS011;18592;49.708;10.900;2023-09-30T02:26:09;7.00;;;3.30;;
21432;SDS011;18592;49.708;10.900;2023-09-30T02:28:10;6.47;;;3.30;;
21432;SDS011;18592;49.708;10.900;2023-09-30T02:30:12;6.20;;;3.00;;
21432;SDS011;18592;49.708;10.900;2023-09-30T02:32:16;5.43;;;3.10;;
21432;SDS011;18592;49.708;10.900;2023-09-30T02:34:18;6.03;;;3.22;;
21432;SDS011;18592;49.708;10.900;2023-09-30T02:36:31;6.78;;;3.13;;
21432;SDS011;18592;49.708;10.900;2023-09-30T02:38:33;5.55;;;3.08;;
21432;SDS011;18592;49.708;10.900;2023-09-30T02:40:35;5.22;;;3.03;;
21432;SDS011;18592;49.708;10.900;2023-09-30T02:45:30;5.65;;;2.90;;
21432;SDS011;18592;49.708;10.900;2023-09-30T02:47:32;5.10;;;2.50;;
21432;SDS011;18592;49.708;10.900;2023-09-30T02:49:36;5.13;;;2.40;;
21432;SDS011;18592;49.708;10.900;2023-09-30T02:51:38;4.90;;;2.40;;
21432;SDS011;18592;49.708;10.900;2023-09-30T02:53:40;5.38;;;2.83;;
21432;SDS011;18592;49.708;10.900;2023-09-30T02:55:41;4.85;;;2.63;;
21432;SDS011;18592;49.708;10.900;2023-09-30T02:57:49;6.05;;;2.60;;
21432;SDS011;18592;49.708;10.900;2023-09-30T02:59:51;4.10;;;2.22;;
21432;SDS011;18592;49.708;10.900;2023-09-30T03:01:53;5.88;;;2.72;;
21432;SDS011;18592;49.708;10.900;2023-09-30T03:03:56;4.57;;;2.40;;
21432;SDS011;18592;49.708;10.900;2023-09-30T03:06:00;4.30;;;2.30;;
21432;SDS011;18592;49.708;10.900;2023-09-30T03:08:04;3.88;;;2.22;;
21432;SDS011;18592;49.708;10.900;2023-09-30T03:10:06;5.63;;;2.20;;
21432;SDS011;18592;49.708;10.900;2023-09-30T03:12:09;4.28;;;1.95;;
21432;SDS011;18592;49.708;10.900;2023-09-30T03:14:11;4.43;;;2.45;;
21432;SDS011;18592;49.708;10.900;2023-09-30T03:16:13;3.60;;;1.90;;
21432;SDS011;18592;49.708;10.900;2023-09-30T03:18:16;4.68;;;2.10;;
21432;SDS011;18592;49.708;10.900;2023-09-30T03:20:21;4.43;;;2.05;;
21432;SDS011;18592;49.708;10.900;2023-09-30T03:22:26;3.67;;;1.98;;
21432;SDS011;18592;49.708;10.900;2023-09-30T03:24:28;4.53;;;2.30;;
21432;SDS011;18592;49.708;10.900;2023-09-30T03:26:30;4.78;;;2.17;;
21432;SDS011;18592;49.708;10.900;2023-09-30T03:28:37;4.60;;;2.05;;
21432;SDS011;18592;49.708;10.900;2023-09-30T03:30:40;3.50;;;1.98;;
21432;SDS011;18592;49.708;10.900;2023-09-30T03:32:42;4.45;;;1.95;;
21432;SDS011;18592;49.708;10.900;2023-09-30T03:34:44;3.38;;;1.63;;
21432;SDS011;18592;49.708;10.900;2023-09-30T03:36:47;4.00;;;1.85;;
21432;SDS011;18592;49.708;10.900;2023-09-30T03:38:49;3.80;;;1.98;;
21432;SDS011;18592;49.708;10.900;2023-09-30T03:40:56;3.67;;;2.10;;
21432;SDS011;18592;49.708;10.900;2023-09-30T03:43:00;4.10;;;1.98;;
21432;SDS011;18592;49.708;10.900;2023-09-30T03:45:02;3.75;;;1.90;;
21432;SDS011;18592;49.708;10.900;2023-09-30T03:47:05;3.47;;;1.90;;
21432;SDS011;18592;49.708;10.900;2023-09-30T03:49:08;3.60;;;1.60;;
21432;SDS011;18592;49.708;10.900;2023-09-30T03:51:13;2.72;;;1.60;;
21432;SDS011;18592;49.708;10.900;2023-09-30T03:53:20;4.57;;;1.92;;
21432;SDS011;18592;49.708;10.900;2023-09-30T03:55:27;3.60;;;1.58;;
21432;SDS011;18592;49.708;10.900;2023-09-30T03:57:33;4.43;;;1.70;;
21432;SDS011;18592;49.708;10.900;2023-09-30T03:59:41;2.72;;;1.52;;
21432;SDS011;18592;49.708;10.900;2023-09-30T04:01:43;4.75;;;2.10;;
21432;SDS011;18592;49.708;10.900;2023-09-30T04:03:45;3.92;;;1.75;;
21432;SDS011;18592;49.708;10.900;2023-09-30T04:05:50;4.15;;;1.70;;
21432;SDS011;18592;49.708;10.900;2023-09-30T04:07:52;3.70;;;1.90;;
21432;SDS011;18592;49.708;10.900;2023-09-30T04:09:57;3.10;;;1.70;;
21432;SDS011;18592;49.708;10.900;2023-09-30T04:12:09;3.08;;;1.98;;
21432;SDS011;18592;49.708;10.900;2023-09-30T04:14:14;3.22;;;1.40;;
21432;SDS011;18592;49.708;10.900;2023-09-30T04:16:18;4.47;;;2.13;;
21432;SDS011;18592;49.708;10.900;2023-09-30T04:18:20;3.15;;;1.60;;
21432;SDS011;18592;49.708;10.900;2023-09-30T04:20:23;2.70;;;1.60;;
21432;SDS011;18592;49.708;10.900;2023-09-30T04:22:28;3.45;;;1.70;;
21432;SDS011;18592;49.708;10.900;2023-09-30T04:24:31;1.95;;;1.30;;
21432;SDS011;18592;49.708;10.900;2023-09-30T04:26:32;3.33;;;1.50;;
21432;SDS011;18592;49.708;10.900;2023-09-30T04:28:34;3.60;;;1.95;;
21432;SDS011;18592;49.708;10.900;2023-09-30T04:30:39;4.30;;;2.00;;
21432;SDS011;18592;49.708;10.900;2023-09-30T04:32:43;2.67;;;1.50;;
21432;SDS011;18592;49.708;10.900;2023-09-30T04:34:45;2.42;;;1.42;;
21432;SDS011;18592;49.708;10.900;2023-09-30T04:36:48;3.13;;;1.85;;
21432;SDS011;18592;49.708;10.900;2023-09-30T04:38:50;4.07;;;1.65;;
21432;SDS011;18592;49.708;10.900;2023-09-30T04:40:52;2.55;;;1.38;;
21432;SDS011;18592;49.708;10.900;2023-09-30T04:43:01;3.05;;;1.50;;
21432;SDS011;18592;49.708;10.900;2023-09-30T04:45:03;3.45;;;1.60;;
21432;SDS011;18592;49.708;10.900;2023-09-30T04:47:07;4.70;;;1.63;;
21432;SDS011;18592;49.708;10.900;2023-09-30T04:49:09;2.53;;;1.60;;
21432;SDS011;18592;49.708;10.900;2023-09-30T04:51:11;3.30;;;1.80;;
21432;SDS011;18592;49.708;10.900;2023-09-30T04:53:14;2.65;;;1.50;;
21432;SDS011;18592;49.708;10.900;2023-09-30T04:55:18;2.88;;;1.40;;
21432;SDS011;18592;49.708;10.900;2023-09-30T04:57:23;3.58;;;1.73;;
21432;SDS011;18592;49.708;10.900;2023-09-30T04:59:27;5.72;;;2.10;;
21432;SDS011;18592;49.708;10.900;2023-09-30T05:01:33;4.10;;;1.92;;
21432;SDS011;18592;49.708;10.900;2023-09-30T05:03:40;2.95;;;1.42;;
21432;SDS011;18592;49.708;10.900;2023-09-30T05:05:43;2.60;;;1.52;;
21432;SDS011;18592;49.708;10.900;2023-09-30T05:07:45;2.67;;;1.45;;
21432;SDS011;18592;49.708;10.900;2023-09-30T05:09:51;5.38;;;2.00;;
21432;SDS011;18592;49.708;10.900;2023-09-30T05:11:55;2.95;;;1.88;;
21432;SDS011;18592;49.708;10.900;2023-09-30T05:13:56;3.45;;;2.00;;
21432;SDS011;18592;49.708;10.900;2023-09-30T05:15:58;2.03;;;1.33;;
21432;SDS011;18592;49.708;10.900;2023-09-30T05:18:03;3.60;;;1.90;;
21432;SDS011;18592;49.708;10.900;2023-09-30T05:20:06;2.70;;;1.65;;
21432;SDS011;18592;49.708;10.900;2023-09-30T05:22:08;2.85;;;1.70;;
21432;SDS011;18592;49.708;10.900;2023-09-30T05:24:15;2.50;;;1.50;;
21432;SDS011;18592;49.708;10.900;2023-09-30T05:26:20;5.43;;;2.05;;
21432;SDS011;18592;49.708;10.900;2023-09-30T05:28:24;3.15;;;1.70;;
21432;SDS011;18592;49.708;10.900;2023-09-30T05:30:26;2.97;;;1.70;;
21432;SDS011;18592;49.708;10.900;2023-09-30T05:32:31;4.72;;;1.75;;
21432;SDS011;18592;49.708;10.900;2023-09-30T05:34:33;2.47;;;1.67;;
21432;SDS011;18592;49.708;10.900;2023-09-30T05:36:38;2.63;;;1.70;;
21432;SDS011;18592;49.708;10.900;2023-09-30T05:38:42;2.65;;;1.40;;
21432;SDS011;18592;49.708;10.900;2023-09-30T05:40:44;2.90;;;1.65;;
21432;SDS011;18592;49.708;10.900;2023-09-30T05:42:45;3.30;;;1.63;;
21432;SDS011;18592;49.708;10.900;2023-09-30T05:44:47;3.72;;;1.70;;
21432;SDS011;18592;49.708;10.900;2023-09-30T05:47:05;2.60;;;1.70;;
21432;SDS011;18592;49.708;10.900;2023-09-30T05:49:06;3.80;;;1.60;;
21432;SDS011;18592;49.708;10.900;2023-09-30T05:51:12;2.78;;;1.35;;
21432;SDS011;18592;49.708;10.900;2023-09-30T05:53:17;4.30;;;1.80;;
21432;SDS011;18592;49.708;10.900;2023-09-30T05:55:19;2.92;;;1.73;;
21432;SDS011;18592;49.708;10.900;2023-09-30T05:57:24;3.67;;;1.88;;
21432;SDS011;18592;49.708;10.900;2023-09-30T05:59:26;2.80;;;1.65;;
21432;SDS011;18592;49.708;10.900;2023-09-30T06:01:29;4.43;;;1.90;;
21432;SDS011;18592;49.708;10.900;2023-09-30T06:03:32;3.33;;;1.80;;
21432;SDS011;18592;49.708;10.900;2023-09-30T06:05:45;3.90;;;1.75;;
21432;SDS011;18592;49.708;10.900;2023-09-30T06:07:48;3.65;;;2.00;;
21432;SDS011;18592;49.708;10.900;2023-09-30T06:09:50;2.92;;;1.63;;
21432;SDS011;18592;49.708;10.900;2023-09-30T06:11:54;3.15;;;1.70;;
21432;SDS011;18592;49.708;10.900;2023-09-30T06:13:56;4.38;;;1.85;;
21432;SDS011;18592;49.708;10.900;2023-09-30T06:16:04;5.72;;;1.80;;
21432;SDS011;18592;49.708;10.900;2023-09-30T06:18:10;3.40;;;1.58;;
21432;SDS011;18592;49.708;10.900;2023-09-30T06:20:16;3.58;;;1.67;;
21432;SDS011;18592;49.708;10.900;2023-09-30T06:22:19;3.08;;;1.60;;
21432;SDS011;18592;49.708;10.900;2023-09-30T06:24:20;2.53;;;1.60;;
21432;SDS011;18592;49.708;10.900;2023-09-30T06:26:25;3.65;;;1.75;;
21432;SDS011;18592;49.708;10.900;2023-09-30T06:28:28;4.03;;;1.90;;
21432;SDS011;18592;49.708;10.900;2023-09-30T06:30:32;2.85;;;1.60;;
21432;SDS011;18592;49.708;10.900;2023-09-30T06:32:35;2.90;;;1.83;;
21432;SDS011;18592;49.708;10.900;2023-09-30T06:34:37;2.78;;;1.88;;
21432;SDS011;18592;49.708;10.900;2023-09-30T06:36:39;3.08;;;1.70;;
21432;SDS011;18592;49.708;10.900;2023-09-30T06:38:45;3.88;;;1.63;;
21432;SDS011;18592;49.708;10.900;2023-09-30T06:40:59;3.33;;;1.75;;
21432;SDS011;18592;49.708;10.900;2023-09-30T06:43:12;4.05;;;1.95;;
21432;SDS011;18592;49.708;10.900;2023-09-30T06:45:13;3.33;;;1.75;;
21432;SDS011;18592;49.708;10.900;2023-09-30T06:47:17;3.63;;;1.70;;
21432;SDS011;18592;49.708;10.900;2023-09-30T06:49:22;4.40;;;2.15;;
21432;SDS011;18592;49.708;10.900;2023-09-30T06:51:25;3.67;;;1.85;;
21432;SDS011;18592;49.708;10.900;2023-09-30T06:53:32;3.97;;;1.90;;
21432;SDS011;18592;49.708;10.900;2023-09-30T06:55:42;3.35;;;1.67;;
21432;SDS011;18592;49.708;10.900;2023-09-30T06:57:47;3.67;;;1.50;;
21432;SDS011;18592;49.708;10.900;2023-09-30T06:59:54;3.90;;;1.90;;
21432;SDS011;18592;49.708;10.900;2023-09-30T07:01:56;2.70;;;1.58;;
21432;SDS011;18592;49.708;10.900;2023-09-30T07:04:01;3.70;;;1.90;;
21432;SDS011;18592;49.708;10.900;2023-09-30T07:06:06;3.47;;;1.85;;
21432;SDS011;18592;49.708;10.900;2023-09-30T07:08:09;2.58;;;1.80;;
21432;SDS011;18592;49.708;10.900;2023-09-30T07:10:11;3.28;;;2.10;;
21432;SDS011;18592;49.708;10.900;2023-09-30T07:12:14;3.97;;;1.90;;
21432;SDS011;18592;49.708;10.900;2023-09-30T07:14:17;3.75;;;1.95;;
21432;SDS011;18592;49.708;10.900;2023-09-30T07:16:21;4.85;;;2.05;;
21432;SDS011;18592;49.708;10.900;2023-09-30T07:18:36;3.83;;;1.88;;
21432;SDS011;18592;49.708;10.900;2023-09-30T07:20:41;2.67;;;1.70;;
21432;SDS011;18592;49.708;10.900;2023-09-30T07:22:43;3.00;;;1.83;;
21432;SDS011;18592;49.708;10.900;2023-09-30T07:24:59;3.67;;;1.85;;
21432;SDS011;18592;49.708;10.900;2023-09-30T07:27:01;4.07;;;1.77;;
21432;SDS011;18592;49.708;10.900;2023-09-30T07:29:15;4.15;;;1.73;;
21432;SDS011;18592;49.708;10.900;2023-09-30T07:31:22;2.88;;;1.55;;
21432;SDS011;18592;49.708;10.900;2023-09-30T07:33:24;3.42;;;1.60;;
21432;SDS011;18592;49.708;10.900;2023-09-30T07:35:29;4.20;;;1.70;;
21432;SDS011;18592;49.708;10.900;2023-09-30T07:37:31;2.55;;;1.63;;
21432;SDS011;18592;49.708;10.900;2023-09-30T07:39:46;4.43;;;2.03;;
21432;SDS011;18592;49.708;10.900;2023-09-30T07:41:50;4.43;;;2.05;;
21432;SDS011;18592;49.708;10.900;2023-09-30T07:43:53;4.50;;;1.83;;
21432;SDS011;18592;49.708;10.900;2023-09-30T07:45:58;4.22;;;1.88;;
21432;SDS011;18592;49.708;10.900;2023-09-30T07:48:00;3.67;;;1.90;;
21432;SDS011;18592;49.708;10.900;2023-09-30T07:50:05;4.18;;;1.77;;
21432;SDS011;18592;49.708;10.900;2023-09-30T07:52:20;3.63;;;1.63;;
21432;SDS011;18592;49.708;10.900;2023-09-30T07:54:27;3.20;;;1.70;;
21432;SDS011;18592;49.708;10.900;2023-09-30T07:56:32;3.17;;;1.90;;
21432;SDS011;18592;49.708;10.900;2023-09-30T07:58:34;4.05;;;2.00;;
21432;SDS011;18592;49.708;10.900;2023-09-30T08:00:35;3.88;;;1.92;;
21432;SDS011;18592;49.708;10.900;2023-09-30T08:02:46;5.00;;;2.20;;
21432;SDS011;18592;49.708;10.900;2023-09-30T08:04:54;3.72;;;2.03;;
21432;SDS011;18592;49.708;10.900;2023-09-30T08:06:57;4.65;;;1.80;;
21432;SDS011;18592;49.708;10.900;2023-09-30T08:08:59;3.88;;;1.75;;
21432;SDS011;18592;49.708;10.900;2023-09-30T08:11:06;4.55;;;2.03;;
21432;SDS011;18592;49.708;10.900;2023-09-30T08:13:08;3.85;;;1.73;;
21432;SDS011;18592;49.708;10.900;2023-09-30T08:15:10;3.30;;;1.70;;
21432;SDS011;18592;49.708;10.900;2023-09-30T08:17:13;3.42;;;1.70;;
21432;SDS011;18592;49.708;10.900;2023-09-30T08:19:16;4.32;;;2.10;;
21432;SDS011;18592;49.708;10.900;2023-09-30T08:21:18;3.88;;;1.95;;
21432;SDS011;18592;49.708;10.900;2023-09-30T08:23:20;3.17;;;1.75;;
21432;SDS011;18592;49.708;10.900;2023-09-30T08:25:25;4.65;;;1.63;;
21432;SDS011;18592;49.708;10.900;2023-09-30T08:27:30;5.47;;;2.30;;
21432;SDS011;18592;49.708;10.900;2023-09-30T08:29:36;3.78;;;1.55;;
21432;SDS011;18592;49.708;10.900;2023-09-30T08:31:38;4.85;;;1.90;;
21432;SDS011;18592;49.708;10.900;2023-09-30T08:33:39;3.72;;;1.75;;
21432;SDS011;18592;49.708;10.900;2023-09-30T08:35:44;5.75;;;2.10;;
21432;SDS011;18592;49.708;10.900;2023-09-30T08:37:46;4.53;;;1.75;;
21432;SDS011;18592;49.708;10.900;2023-09-30T08:39:47;5.13;;;1.92;;
21432;SDS011;18592;49.708;10.900;2023-09-30T08:41:51;4.40;;;1.90;;
21432;SDS011;18592;49.708;10.900;2023-09-30T08:43:55;4.45;;;1.88;;
21432;SDS011;18592;49.708;10.900;2023-09-30T08:46:00;3.25;;;2.00;;
21432;SDS011;18592;49.708;10.900;2023-09-30T08:48:08;3.58;;;1.88;;
21432;SDS011;18592;49.708;10.900;2023-09-30T08:50:16;3.20;;;1.80;;
21432;SDS011;18592;49.708;10.900;2023-09-30T08:52:18;3.25;;;1.70;;
21432;SDS011;18592;49.708;10.900;2023-09-30T08:54:22;3.22;;;1.83;;
21432;SDS011;18592;49.708;10.900;2023-09-30T08:56:25;6.25;;;1.75;;
21432;SDS011;18592;49.708;10.900;2023-09-30T08:58:29;4.00;;;1.90;;
21432;SDS011;18592;49.708;10.900;2023-09-30T09:00:30;5.43;;;2.17;;
21432;SDS011;18592;49.708;10.900;2023-09-30T09:02:35;3.15;;;1.75;;
21432;SDS011;18592;49.708;10.900;2023-09-30T09:04:37;3.72;;;1.80;;
21432;SDS011;18592;49.708;10.900;2023-09-30T09:06:39;3.92;;;1.85;;
21432;SDS011;18592;49.708;10.900;2023-09-30T09:08:44;3.80;;;2.00;;
21432;SDS011;18592;49.708;10.900;2023-09-30T09:10:53;4.32;;;1.80;;
21432;SDS011;18592;49.708;10.900;2023-09-30T09:13:08;3.40;;;1.70;;
21432;SDS011;18592;49.708;10.900;2023-09-30T09:15:20;3.25;;;1.67;;
21432;SDS011;18592;49.708;10.900;2023-09-30T09:17:45;3.40;;;2.00;;
21432;SDS011;18592;49.708;10.900;2023-09-30T09:19:57;3.80;;;2.00;;
21432;SDS011;18592;49.708;10.900;2023-09-30T09:22:01;3.13;;;1.95;;
21432;SDS011;18592;49.708;10.900;2023-09-30T09:24:23;4.40;;;2.13;;
21432;SDS011;18592;49.708;10.900;2023-09-30T09:26:30;5.28;;;2.05;;
21432;SDS011;18592;49.708;10.900;2023-09-30T09:28:43;5.70;;;2.30;;
21432;SDS011;18592;49.708;10.900;2023-09-30T09:30:55;3.05;;;1.77;;
21432;SDS011;18592;49.708;10.900;2023-09-30T09:35:12;5.07;;;2.25;;
21432;SDS011;18592;49.708;10.900;2023-09-30T09:37:23;4.85;;;2.10;;
21432;SDS011;18592;49.708;10.900;2023-09-30T09:39:31;4.32;;;2.05;;
21432;SDS011;18592;49.708;10.900;2023-09-30T09:42:00;3.25;;;1.90;;
21432;SDS011;18592;49.708;10.900;2023-09-30T09:44:08;5.65;;;2.00;;
21432;SDS011;18592;49.708;10.900;2023-09-30T09:46:18;3.40;;;1.83;;
21432;SDS011;18592;49.708;10.900;2023-09-30T09:48:28;3.67;;;2.00;;
21432;SDS011;18592;49.708;10.900;2023-09-30T09:50:43;3.67;;;1.92;;
21432;SDS011;18592;49.708;10.900;2023-09-30T09:52:56;4.53;;;2.13;;
21432;SDS011;18592;49.708;10.900;2023-09-30T09:55:10;2.65;;;1.98;;
21432;SDS011;18592;49.708;10.900;2023-09-30T09:57:16;4.32;;;2.28;;
21432;SDS011;18592;49.708;10.900;2023-09-30T09:59:22;2.75;;;1.80;;
21432;SDS011;18592;49.708;10.900;2023-09-30T10:01:26;4.03;;;1.98;;
21432;SDS011;18592;49.708;10.900;2023-09-30T10:03:29;2.63;;;1.70;;
21432;SDS011;18592;49.708;10.900;2023-09-30T10:05:30;4.43;;;2.00;;
21432;SDS011;18592;49.708;10.900;2023-09-30T10:07:33;4.85;;;2.20;;
21432;SDS011;18592;49.708;10.900;2023-09-30T10:10:09;4.53;;;1.98;;
21432;SDS011;18592;49.708;10.900;2023-09-30T10:12:15;3.10;;;1.65;;
21432;SDS011;18592;49.708;10.900;2023-09-30T10:14:30;2.45;;;1.80;;
21432;SDS011;18592;49.708;10.900;2023-09-30T10:16:46;3.60;;;1.75;;
21432;SDS011;18592;49.708;10.900;2023-09-30T10:19:07;5.78;;;2.28;;
21432;SDS011;18592;49.708;10.900;2023-09-30T10:21:09;4.55;;;2.05;;
21432;SDS011;18592;49.708;10.900;2023-09-30T10:25:35;3.30;;;2.10;;
21432;SDS011;18592;49.708;10.900;2023-09-30T10:27:51;3.72;;;2.15;;
21432;SDS011;18592;49.708;10.900;2023-09-30T10:29:54;2.95;;;1.80;;
21432;SDS011;18592;49.708;10.900;2023-09-30T10:32:06;3.95;;;1.90;;
21432;SDS011;18592;49.708;10.900;2023-09-30T10:34:19;5.10;;;2.13;;
21432;SDS011;18592;49.708;10.900;2023-09-30T10:36:26;3.38;;;2.00;;
21432;SDS011;18592;49.708;10.900;2023-09-30T10:38:37;3.80;;;1.90;;
21432;SDS011;18592;49.708;10.900;2023-09-30T10:40:53;3.80;;;2.08;;
21432;SDS011;18592;49.708;10.900;2023-09-30T10:42:57;3.42;;;2.00;;
21432;SDS011;18592;49.708;10.900;2023-09-30T10:45:08;2.67;;;1.80;;
21432;SDS011;18592;49.708;10.900;2023-09-30T10:47:51;4.47;;;2.08;;
21432;SDS011;18592;49.708;10.900;2023-09-30T10:50:02;3.85;;;2.10;;
21432;SDS011;18592;49.708;10.900;2023-09-30T10:52:10;4.43;;;2.20;;
21432;SDS011;18592;49.708;10.900;2023-09-30T10:54:12;3.22;;;1.95;;
21432;SDS011;18592;49.708;10.900;2023-09-30T10:56:14;3.50;;;1.80;;
21432;SDS011;18592;49.708;10.900;2023-09-30T10:58:17;3.38;;;1.98;;
21432;SDS011;18592;49.708;10.900;2023-09-30T11:00:21;3.88;;;1.90;;
21432;SDS011;18592;49.708;10.900;2023-09-30T11:02:29;3.78;;;1.90;;
21432;SDS011;18592;49.708;10.900;2023-09-30T11:04:29;2.92;;;1.92;;
21432;SDS011;18592;49.708;10.900;2023-09-30T11:06:43;2.03;;;1.67;;
21432;SDS011;18592;49.708;10.900;2023-09-30T11:08:50;3.22;;;2.00;;
21432;SDS011;18592;49.708;10.900;2023-09-30T11:11:04;5.22;;;1.88;;
21432;SDS011;18592;49.708;10.900;2023-09-30T11:13:16;3.33;;;1.85;;
21432;SDS011;18592;49.708;10.900;2023-09-30T11:15:21;4.38;;;2.30;;
21432;SDS011;18592;49.708;10.900;2023-09-30T11:17:27;3.70;;;2.00;;
21432;SDS011;18592;49.708;10.900;2023-09-30T11:19:45;4.45;;;2.22;;
21432;SDS011;18592;49.708;10.900;2023-09-30T11:21:53;3.65;;;2.33;;
21432;SDS011;18592;49.708;10.900;2023-09-30T11:24:06;3.08;;;1.77;;
21432;SDS011;18592;49.708;10.900;2023-09-30T11:26:09;2.85;;;1.90;;
21432;SDS011;18592;49.708;10.900;2023-09-30T11:28:17;3.78;;;2.05;;
21432;SDS011;18592;49.708;10.900;2023-09-30T11:30:23;3.90;;;2.22;;
21432;SDS011;18592;49.708;10.900;2023-09-30T11:32:39;2.42;;;1.50;;
21432;SDS011;18592;49.708;10.900;2023-09-30T11:34:39;4.03;;;2.10;;
21432;SDS011;18592;49.708;10.900;2023-09-30T11:37:04;4.53;;;1.92;;
21432;SDS011;18592;49.708;10.900;2023-09-30T11:39:21;3.92;;;2.47;;
21432;SDS011;18592;49.708;10.900;2023-09-30T11:41:36;4.32;;;2.20;;
21432;SDS011;18592;49.708;10.900;2023-09-30T11:43:58;2.75;;;1.95;;
21432;SDS011;18592;49.708;10.900;2023-09-30T11:46:11;3.45;;;1.77;;
21432;SDS011;18592;49.708;10.900;2023-09-30T11:48:30;3.67;;;2.35;;
21432;SDS011;18592;49.708;10.900;2023-09-30T11:50:51;2.83;;;1.98;;
21432;SDS011;18592;49.708;10.900;2023-09-30T11:53:17;2.90;;;2.00;;
21432;SDS011;18592;49.708;10.900;2023-09-30T11:55:19;4.53;;;2.08;;
21432;SDS011;18592;49.708;10.900;2023-09-30T11:57:22;3.83;;;2.28;;
21432;SDS011;18592;49.708;10.900;2023-09-30T11:59:32;3.42;;;1.95;;
21432;SDS011;18592;49.708;10.900;2023-09-30T12:12:18;4.57;;;2.40;;
21432;SDS011;18592;49.708;10.900;2023-09-30T12:14:20;3.80;;;2.53;;
21432;SDS011;18592;49.708;10.900;2023-09-30T12:16:20;4.68;;;2.60;;
21432;SDS011;18592;49.708;10.900;2023-09-30T12:18:22;3.72;;;2.33;;
21432;SDS011;18592;49.708;10.900;2023-09-30T12:20:24;3.63;;;2.40;;
21432;SDS011;18592;49.708;10.900;2023-09-30T12:22:27;5.15;;;2.70;;
21432;SDS011;18592;49.708;10.900;2023-09-30T12:24:28;4.78;;;2.70;;
21432;SDS011;18592;49.708;10.900;2023-09-30T12:26:29;3.28;;;2.13;;
21432;SDS011;18592;49.708;10.900;2023-09-30T12:28:33;4.45;;;2.70;;
21432;SDS011;18592;49.708;10.900;2023-09-30T12:30:34;4.68;;;2.55;;
21432;SDS011;18592;49.708;10.900;2023-09-30T12:32:35;4.30;;;2.58;;
21432;SDS011;18592;49.708;10.900;2023-09-30T12:34:35;3.80;;;2.58;;
21432;SDS011;18592;49.708;10.900;2023-09-30T12:36:36;4.82;;;2.80;;
21432;SDS011;18592;49.708;10.900;2023-09-30T12:38:36;5.28;;;3.30;;
21432;SDS011;18592;49.708;10.900;2023-09-30T12:40:36;4.10;;;2.90;;
21432;SDS011;18592;49.708;10.900;2023-09-30T12:42:37;3.33;;;2.58;;